sensor_id;sensor_type;location;lat;lon;timestamp;P1;durP1;ratioP1;P2;durP2;ratioP2
65092;SDS011;52025;50.288;2.794;2023-06-04T04:32:20;6.03;;;2.20;;
65092;SDS011;52025;50.288;2.794;2023-06-04T04:34:54;5.22;;;2.00;;
65092;SDS011;52025;50.288;2.794;2023-06-04T04:37:27;5.57;;;2.17;;
65092;SDS011;52025;50.288;2.794;2023-06-04T04:40:29;4.93;;;2.20;;
65092;SDS011;52025;50.288;2.794;2023-06-04T04:43:16;4.95;;;2.13;;
65092;SDS011;52025;50.288;2.794;2023-06-04T04:45:49;5.88;;;2.45;;
65092;SDS011;52025;50.288;2.794;2023-06-04T04:48:32;5.03;;;2.25;;
65092;SDS011;52025;50.288;2.794;2023-06-04T04:51:03;6.07;;;2.30;;
65092;SDS011;52025;50.288;2.794;2023-06-04T04:53:44;6.18;;;2.22;;
65092;SDS011;52025;50.288;2.794;2023-06-04T04:56:23;5.60;;;2.03;;
65092;SDS011;52025;50.288;2.794;2023-06-04T04:58:54;7.90;;;2.25;;
65092;SDS011;52025;50.288;2.794;2023-06-04T05:04:24;4.57;;;2.42;;
65092;SDS011;52025;50.288;2.794;2023-06-04T05:06:52;5.70;;;2.40;;
65092;SDS011;52025;50.288;2.794;2023-06-04T05:09:40;8.63;;;2.35;;
65092;SDS011;52025;50.288;2.794;2023-06-04T05:12:11;4.30;;;2.33;;
65092;SDS011;52025;50.288;2.794;2023-06-04T05:17:33;5.45;;;2.08;;
65092;SDS011;52025;50.288;2.794;2023-06-04T05:20:11;7.82;;;2.25;;
65092;SDS011;52025;50.288;2.794;2023-06-04T05:22:56;5.30;;;2.25;;
65092;SDS011;52025;50.288;2.794;2023-06-04T05:25:26;5.70;;;2.28;;
65092;SDS011;52025;50.288;2.794;2023-06-04T05:28:17;5.13;;;2.65;;
65092;SDS011;52025;50.288;2.794;2023-06-04T05:34:26;4.10;;;1.88;;
65092;SDS011;52025;50.288;2.794;2023-06-04T05:40:03;7.55;;;2.60;;
65092;SDS011;52025;50.288;2.794;2023-06-04T05:46:54;6.57;;;2.50;;
65092;SDS011;52025;50.288;2.794;2023-06-04T05:49:08;5.50;;;2.35;;
65092;SDS011;52025;50.288;2.794;2023-06-04T05:54:56;6.55;;;2.13;;
65092;SDS011;52025;50.288;2.794;2023-06-04T06:06:48;4.82;;;1.83;;
65092;SDS011;52025;50.288;2.794;2023-06-04T06:09:14;5.57;;;2.45;;
65092;SDS011;52025;50.288;2.794;2023-06-04T06:11:41;8.55;;;3.15;;
65092;SDS011;52025;50.288;2.794;2023-06-04T06:17:09;5.28;;;2.30;;
65092;SDS011;52025;50.288;2.794;2023-06-04T06:19:50;3.97;;;2.22;;
65092;SDS011;52025;50.288;2.794;2023-06-04T06:22:22;5.97;;;2.40;;
65092;SDS011;52025;50.288;2.794;2023-06-04T06:25:02;4.72;;;1.95;;
65092;SDS011;52025;50.288;2.794;2023-06-04T06:27:38;5.33;;;2.03;;
65092;SDS011;52025;50.288;2.794;2023-06-04T06:36:45;6.20;;;1.92;;
65092;SDS011;52025;50.288;2.794;2023-06-04T06:39:25;4.53;;;1.88;;
65092;SDS011;52025;50.288;2.794;2023-06-04T06:50:50;4.40;;;2.05;;
65092;SDS011;52025;50.288;2.794;2023-06-04T06:53:18;5.75;;;2.50;;
65092;SDS011;52025;50.288;2.794;2023-06-04T06:55:54;4.93;;;1.77;;
65092;SDS011;52025;50.288;2.794;2023-06-04T06:58:22;2.00;;;1.13;;
65092;SDS011;52025;50.288;2.794;2023-06-04T07:00:55;5.45;;;1.60;;
65092;SDS011;52025;50.288;2.794;2023-06-04T07:03:22;3.80;;;1.65;;
65092;SDS011;52025;50.288;2.794;2023-06-04T07:05:52;2.80;;;1.30;;
65092;SDS011;52025;50.288;2.794;2023-06-04T07:08:20;5.93;;;2.33;;
65092;SDS011;52025;50.288;2.794;2023-06-04T07:10:46;4.28;;;1.92;;
65092;SDS011;52025;50.288;2.794;2023-06-04T07:13:28;3.03;;;1.20;;
65092;SDS011;52025;50.288;2.794;2023-06-04T07:16:16;2.85;;;1.40;;
65092;SDS011;52025;50.288;2.794;2023-06-04T07:21:11;2.10;;;1.13;;
65092;SDS011;52025;50.288;2.794;2023-06-04T07:23:36;8.85;;;1.50;;
65092;SDS011;52025;50.288;2.794;2023-06-04T07:26:02;5.22;;;1.75;;
65092;SDS011;52025;50.288;2.794;2023-06-04T07:28:45;5.72;;;1.98;;
65092;SDS011;52025;50.288;2.794;2023-06-04T07:31:14;4.05;;;1.55;;
65092;SDS011;52025;50.288;2.794;2023-06-04T07:33:42;1.80;;;0.90;;
65092;SDS011;52025;50.288;2.794;2023-06-04T07:36:14;2.95;;;1.40;;
65092;SDS011;52025;50.288;2.794;2023-06-04T07:38:43;2.55;;;1.27;;
65092;SDS011;52025;50.288;2.794;2023-06-04T07:41:11;4.25;;;2.17;;
65092;SDS011;52025;50.288;2.794;2023-06-04T07:43:37;4.30;;;2.10;;
65092;SDS011;52025;50.288;2.794;2023-06-04T07:46:02;4.47;;;1.60;;
65092;SDS011;52025;50.288;2.794;2023-06-04T07:48:43;7.00;;;1.58;;
65092;SDS011;52025;50.288;2.794;2023-06-04T07:51:08;3.35;;;1.25;;
65092;SDS011;52025;50.288;2.794;2023-06-04T07:53:42;2.92;;;1.45;;
65092;SDS011;52025;50.288;2.794;2023-06-04T07:56:12;5.15;;;1.65;;
65092;SDS011;52025;50.288;2.794;2023-06-04T07:58:45;4.50;;;1.92;;
65092;SDS011;52025;50.288;2.794;2023-06-04T08:01:11;3.63;;;1.17;;
65092;SDS011;52025;50.288;2.794;2023-06-04T08:03:37;6.07;;;1.98;;
65092;SDS011;52025;50.288;2.794;2023-06-04T08:06:02;2.70;;;1.20;;
65092;SDS011;52025;50.288;2.794;2023-06-04T08:08:30;4.18;;;1.73;;
65092;SDS011;52025;50.288;2.794;2023-06-04T08:10:57;1.80;;;0.77;;
65092;SDS011;52025;50.288;2.794;2023-06-04T08:16:21;4.30;;;1.55;;
65092;SDS011;52025;50.288;2.794;2023-06-04T08:18:47;3.40;;;0.98;;
65092;SDS011;52025;50.288;2.794;2023-06-04T08:26:23;3.53;;;1.52;;
65092;SDS011;52025;50.288;2.794;2023-06-04T08:28:50;4.38;;;1.73;;
65092;SDS011;52025;50.288;2.794;2023-06-04T08:31:18;2.15;;;0.75;;
65092;SDS011;52025;50.288;2.794;2023-06-04T08:34:02;2.17;;;1.10;;
65092;SDS011;52025;50.288;2.794;2023-06-04T08:36:36;1.63;;;0.93;;
65092;SDS011;52025;50.288;2.794;2023-06-04T08:39:14;4.32;;;1.40;;
65092;SDS011;52025;50.288;2.794;2023-06-04T08:44:05;5.67;;;1.70;;
65092;SDS011;52025;50.288;2.794;2023-06-04T08:46:34;2.75;;;1.38;;
65092;SDS011;52025;50.288;2.794;2023-06-04T08:49:04;6.82;;;1.48;;
65092;SDS011;52025;50.288;2.794;2023-06-04T08:51:32;5.10;;;1.73;;
65092;SDS011;52025;50.288;2.794;2023-06-04T08:56:55;5.15;;;2.08;;
65092;SDS011;52025;50.288;2.794;2023-06-04T08:59:23;1.90;;;1.17;;
65092;SDS011;52025;50.288;2.794;2023-06-04T09:02:01;5.05;;;1.35;;
65092;SDS011;52025;50.288;2.794;2023-06-04T09:04:32;6.03;;;1.20;;
65092;SDS011;52025;50.288;2.794;2023-06-04T09:07:00;5.88;;;1.85;;
65092;SDS011;52025;50.288;2.794;2023-06-04T09:12:24;2.47;;;1.10;;
65092;SDS011;52025;50.288;2.794;2023-06-04T09:14:52;3.00;;;1.27;;
65092;SDS011;52025;50.288;2.794;2023-06-04T09:17:21;1.45;;;0.85;;
65092;SDS011;52025;50.288;2.794;2023-06-04T09:19:47;3.90;;;1.30;;
65092;SDS011;52025;50.288;2.794;2023-06-04T09:22:15;3.78;;;1.20;;
65092;SDS011;52025;50.288;2.794;2023-06-04T09:24:50;3.70;;;1.20;;
65092;SDS011;52025;50.288;2.794;2023-06-04T09:27:19;3.65;;;1.23;;
65092;SDS011;52025;50.288;2.794;2023-06-04T09:29:51;3.00;;;0.98;;
65092;SDS011;52025;50.288;2.794;2023-06-04T09:32:21;2.22;;;0.88;;
65092;SDS011;52025;50.288;2.794;2023-06-04T09:34:46;1.65;;;0.73;;
65092;SDS011;52025;50.288;2.794;2023-06-04T09:37:22;3.50;;;1.10;;
65092;SDS011;52025;50.288;2.794;2023-06-04T09:39:55;2.15;;;0.85;;
65092;SDS011;52025;50.288;2.794;2023-06-04T09:42:21;2.28;;;1.00;;
65092;SDS011;52025;50.288;2.794;2023-06-04T09:44:47;3.33;;;1.20;;
65092;SDS011;52025;50.288;2.794;2023-06-04T09:47:12;2.17;;;1.00;;
65092;SDS011;52025;50.288;2.794;2023-06-04T09:49:47;2.45;;;1.27;;
65092;SDS011;52025;50.288;2.794;2023-06-04T09:52:16;2.70;;;0.85;;
65092;SDS011;52025;50.288;2.794;2023-06-04T09:54:44;6.85;;;1.20;;
65092;SDS011;52025;50.288;2.794;2023-06-04T09:57:13;1.67;;;0.65;;
65092;SDS011;52025;50.288;2.794;2023-06-04T09:59:50;1.13;;;0.73;;
65092;SDS011;52025;50.288;2.794;2023-06-04T10:02:35;2.80;;;0.82;;
65092;SDS011;52025;50.288;2.794;2023-06-04T10:05:00;0.80;;;0.70;;
65092;SDS011;52025;50.288;2.794;2023-06-04T10:07:26;2.17;;;0.90;;
65092;SDS011;52025;50.288;2.794;2023-06-04T10:09:51;0.95;;;0.50;;
65092;SDS011;52025;50.288;2.794;2023-06-04T10:12:17;3.55;;;1.30;;
65092;SDS011;52025;50.288;2.794;2023-06-04T10:15:10;1.77;;;0.65;;
65092;SDS011;52025;50.288;2.794;2023-06-04T10:17:37;1.25;;;0.75;;
65092;SDS011;52025;50.288;2.794;2023-06-04T10:20:02;3.03;;;1.00;;
65092;SDS011;52025;50.288;2.794;2023-06-04T10:22:31;0.85;;;0.50;;
65092;SDS011;52025;50.288;2.794;2023-06-04T10:24:57;3.22;;;0.95;;
65092;SDS011;52025;50.288;2.794;2023-06-04T10:27:30;1.77;;;1.00;;
65092;SDS011;52025;50.288;2.794;2023-06-04T10:29:58;2.75;;;0.98;;
65092;SDS011;52025;50.288;2.794;2023-06-04T10:32:29;1.55;;;0.50;;
65092;SDS011;52025;50.288;2.794;2023-06-04T10:35:06;2.30;;;0.80;;
65092;SDS011;52025;50.288;2.794;2023-06-04T10:37:36;1.08;;;0.60;;
65092;SDS011;52025;50.288;2.794;2023-06-04T10:40:03;1.27;;;0.60;;
65092;SDS011;52025;50.288;2.794;2023-06-04T10:42:40;3.35;;;1.40;;
65092;SDS011;52025;50.288;2.794;2023-06-04T10:45:07;1.38;;;0.75;;
65092;SDS011;52025;50.288;2.794;2023-06-04T10:47:36;1.08;;;0.50;;
65092;SDS011;52025;50.288;2.794;2023-06-04T10:56:28;1.10;;;0.55;;
65092;SDS011;52025;50.288;2.794;2023-06-04T10:59:27;1.52;;;0.73;;
65092;SDS011;52025;50.288;2.794;2023-06-04T11:01:48;3.53;;;1.00;;
65092;SDS011;52025;50.288;2.794;2023-06-04T11:04:26;0.90;;;0.60;;
65092;SDS011;52025;50.288;2.794;2023-06-04T11:07:03;2.08;;;0.60;;
65092;SDS011;52025;50.288;2.794;2023-06-04T11:09:47;1.17;;;0.65;;
65092;SDS011;52025;50.288;2.794;2023-06-04T11:12:15;1.63;;;0.77;;
65092;SDS011;52025;50.288;2.794;2023-06-04T11:15:06;1.48;;;0.73;;
65092;SDS011;52025;50.288;2.794;2023-06-04T11:17:35;0.82;;;0.60;;
65092;SDS011;52025;50.288;2.794;2023-06-04T11:20:01;2.03;;;0.90;;
65092;SDS011;52025;50.288;2.794;2023-06-04T11:22:26;1.05;;;0.55;;
65092;SDS011;52025;50.288;2.794;2023-06-04T11:24:56;8.10;;;0.95;;
65092;SDS011;52025;50.288;2.794;2023-06-04T11:27:27;1.15;;;0.50;;
65092;SDS011;52025;50.288;2.794;2023-06-04T11:30:00;0.93;;;0.50;;
65092;SDS011;52025;50.288;2.794;2023-06-04T11:32:34;4.25;;;0.77;;
65092;SDS011;52025;50.288;2.794;2023-06-04T11:35:06;2.10;;;0.70;;
65092;SDS011;52025;50.288;2.794;2023-06-04T11:37:54;1.23;;;0.70;;
65092;SDS011;52025;50.288;2.794;2023-06-04T11:43:10;2.92;;;0.45;;
65092;SDS011;52025;50.288;2.794;2023-06-04T11:45:35;1.05;;;0.55;;
65092;SDS011;52025;50.288;2.794;2023-06-04T11:48:05;0.68;;;0.50;;
65092;SDS011;52025;50.288;2.794;2023-06-04T11:50:42;0.22;;;0.20;;
65092;SDS011;52025;50.288;2.794;2023-06-04T11:53:12;1.75;;;0.73;;
65092;SDS011;52025;50.288;2.794;2023-06-04T11:55:40;3.88;;;1.00;;
65092;SDS011;52025;50.288;2.794;2023-06-04T11:58:22;1.75;;;0.80;;
65092;SDS011;52025;50.288;2.794;2023-06-04T12:07:19;0.75;;;0.55;;
65092;SDS011;52025;50.288;2.794;2023-06-04T12:12:53;0.68;;;0.57;;
65092;SDS011;52025;50.288;2.794;2023-06-04T12:18:38;2.45;;;0.75;;
65092;SDS011;52025;50.288;2.794;2023-06-04T12:21:24;2.80;;;0.65;;
65092;SDS011;52025;50.288;2.794;2023-06-04T12:27:18;2.55;;;1.08;;
65092;SDS011;52025;50.288;2.794;2023-06-04T12:59:09;1.50;;;0.70;;
65092;SDS011;52025;50.288;2.794;2023-06-04T13:05:12;0.88;;;0.40;;
65092;SDS011;52025;50.288;2.794;2023-06-04T13:10:49;1.55;;;0.82;;
65092;SDS011;52025;50.288;2.794;2023-06-04T13:13:48;1.33;;;0.70;;
65092;SDS011;52025;50.288;2.794;2023-06-04T13:25:38;0.60;;;0.43;;
65092;SDS011;52025;50.288;2.794;2023-06-04T13:28:55;2.20;;;0.95;;
65092;SDS011;52025;50.288;2.794;2023-06-04T13:31:55;1.33;;;0.50;;
65092;SDS011;52025;50.288;2.794;2023-06-04T13:50:31;2.40;;;0.93;;
65092;SDS011;52025;50.288;2.794;2023-06-04T13:53:25;2.03;;;0.60;;
65092;SDS011;52025;50.288;2.794;2023-06-04T13:59:33;0.93;;;0.60;;
65092;SDS011;52025;50.288;2.794;2023-06-04T14:02:20;3.60;;;1.00;;
65092;SDS011;52025;50.288;2.794;2023-06-04T14:05:11;1.20;;;0.80;;
65092;SDS011;52025;50.288;2.794;2023-06-04T14:11:05;2.47;;;0.73;;
65092;SDS011;52025;50.288;2.794;2023-06-04T14:13:59;3.15;;;1.05;;
65092;SDS011;52025;50.288;2.794;2023-06-04T14:16:38;3.33;;;1.30;;
65092;SDS011;52025;50.288;2.794;2023-06-04T14:19:12;2.05;;;0.70;;
65092;SDS011;52025;50.288;2.794;2023-06-04T14:22:00;1.27;;;0.60;;
65092;SDS011;52025;50.288;2.794;2023-06-04T14:49:17;0.88;;;0.52;;
65092;SDS011;52025;50.288;2.794;2023-06-04T14:52:52;2.25;;;1.10;;
65092;SDS011;52025;50.288;2.794;2023-06-04T14:55:42;1.33;;;0.68;;
65092;SDS011;52025;50.288;2.794;2023-06-04T14:58:28;2.40;;;0.77;;
65092;SDS011;52025;50.288;2.794;2023-06-04T15:10:36;2.20;;;1.10;;
65092;SDS011;52025;50.288;2.794;2023-06-04T15:13:27;3.03;;;1.13;;
65092;SDS011;52025;50.288;2.794;2023-06-04T15:16:06;4.07;;;1.50;;
65092;SDS011;52025;50.288;2.794;2023-06-04T15:18:40;5.53;;;1.33;;
65092;SDS011;52025;50.288;2.794;2023-06-04T15:23:55;3.60;;;1.23;;
65092;SDS011;52025;50.288;2.794;2023-06-04T15:35:48;1.98;;;0.93;;
65092;SDS011;52025;50.288;2.794;2023-06-04T15:38:19;2.25;;;0.80;;
65092;SDS011;52025;50.288;2.794;2023-06-04T15:40:52;7.43;;;1.17;;
65092;SDS011;52025;50.288;2.794;2023-06-04T15:46:07;1.63;;;0.77;;
65092;SDS011;52025;50.288;2.794;2023-06-04T15:48:47;2.25;;;0.98;;
65092;SDS011;52025;50.288;2.794;2023-06-04T15:51:42;4.35;;;1.02;;
65092;SDS011;52025;50.288;2.794;2023-06-04T15:55:10;1.88;;;1.05;;
65092;SDS011;52025;50.288;2.794;2023-06-04T15:57:40;0.77;;;0.50;;
65092;SDS011;52025;50.288;2.794;2023-06-04T16:05:50;1.35;;;0.70;;
65092;SDS011;52025;50.288;2.794;2023-06-04T16:08:25;3.90;;;1.27;;
65092;SDS011;52025;50.288;2.794;2023-06-04T16:10:58;2.38;;;1.10;;
65092;SDS011;52025;50.288;2.794;2023-06-04T16:13:31;1.95;;;1.02;;
65092;SDS011;52025;50.288;2.794;2023-06-04T16:16:05;1.65;;;0.93;;
65092;SDS011;52025;50.288;2.794;2023-06-04T16:18:57;1.52;;;0.80;;
65092;SDS011;52025;50.288;2.794;2023-06-04T16:21:22;2.35;;;0.90;;
65092;SDS011;52025;50.288;2.794;2023-06-04T16:26:57;1.58;;;0.93;;
65092;SDS011;52025;50.288;2.794;2023-06-04T16:29:31;1.48;;;0.70;;
65092;SDS011;52025;50.288;2.794;2023-06-04T16:34:58;3.95;;;1.25;;
65092;SDS011;52025;50.288;2.794;2023-06-04T16:43:16;0.82;;;0.47;;
65092;SDS011;52025;50.288;2.794;2023-06-04T16:45:53;1.58;;;0.73;;
65092;SDS011;52025;50.288;2.794;2023-06-04T16:48:55;0.80;;;0.55;;
65092;SDS011;52025;50.288;2.794;2023-06-04T16:54:45;2.55;;;1.02;;
65092;SDS011;52025;50.288;2.794;2023-06-04T16:57:32;4.47;;;1.55;;
65092;SDS011;52025;50.288;2.794;2023-06-04T17:00:38;3.45;;;1.02;;
65092;SDS011;52025;50.288;2.794;2023-06-04T17:31:48;4.93;;;1.50;;
65092;SDS011;52025;50.288;2.794;2023-06-04T17:37:12;4.82;;;1.52;;
65092;SDS011;52025;50.288;2.794;2023-06-04T17:39:40;2.97;;;1.20;;
65092;SDS011;52025;50.288;2.794;2023-06-04T17:42:08;4.43;;;1.45;;
65092;SDS011;52025;50.288;2.794;2023-06-04T17:44:35;1.73;;;0.90;;
65092;SDS011;52025;50.288;2.794;2023-06-04T17:47:10;3.03;;;1.10;;
65092;SDS011;52025;50.288;2.794;2023-06-04T17:50:03;2.23;;;1.13;;
65092;SDS011;52025;50.288;2.794;2023-06-04T17:55:44;4.65;;;1.30;;
65092;SDS011;52025;50.288;2.794;2023-06-04T18:01:27;2.50;;;1.17;;
65092;SDS011;52025;50.288;2.794;2023-06-04T18:10:26;3.10;;;1.33;;
65092;SDS011;52025;50.288;2.794;2023-06-04T18:16:49;6.63;;;1.60;;
65092;SDS011;52025;50.288;2.794;2023-06-04T18:23:11;5.75;;;1.50;;
65092;SDS011;52025;50.288;2.794;2023-06-04T18:28:37;2.60;;;1.23;;
65092;SDS011;52025;50.288;2.794;2023-06-04T18:31:33;5.18;;;1.50;;
65092;SDS011;52025;50.288;2.794;2023-06-04T18:34:24;6.45;;;1.90;;
65092;SDS011;52025;50.288;2.794;2023-06-04T18:36:55;2.42;;;1.13;;
65092;SDS011;52025;50.288;2.794;2023-06-04T18:39:32;6.78;;;1.77;;
65092;SDS011;52025;50.288;2.794;2023-06-04T18:42:23;4.63;;;1.20;;
65092;SDS011;52025;50.288;2.794;2023-06-04T18:44:58;5.75;;;1.38;;
65092;SDS011;52025;50.288;2.794;2023-06-04T18:47:27;3.75;;;1.33;;
65092;SDS011;52025;50.288;2.794;2023-06-04T18:55:34;3.70;;;1.42;;
65092;SDS011;52025;50.288;2.794;2023-06-04T18:57:59;4.35;;;1.33;;
65092;SDS011;52025;50.288;2.794;2023-06-04T19:00:27;4.30;;;1.15;;
65092;SDS011;52025;50.288;2.794;2023-06-04T19:02:53;3.30;;;1.00;;
65092;SDS011;52025;50.288;2.794;2023-06-04T19:08:33;3.90;;;1.30;;
65092;SDS011;52025;50.288;2.794;2023-06-04T19:11:07;3.35;;;1.20;;
65092;SDS011;52025;50.288;2.794;2023-06-04T19:13:53;3.25;;;1.30;;
65092;SDS011;52025;50.288;2.794;2023-06-04T19:16:18;5.55;;;1.60;;
65092;SDS011;52025;50.288;2.794;2023-06-04T19:19:16;3.03;;;1.13;;
65092;SDS011;52025;50.288;2.794;2023-06-04T19:21:41;5.47;;;1.67;;
65092;SDS011;52025;50.288;2.794;2023-06-04T19:24:06;3.15;;;1.13;;
65092;SDS011;52025;50.288;2.794;2023-06-04T19:29:44;3.95;;;1.23;;
65092;SDS011;52025;50.288;2.794;2023-06-04T19:32:13;3.70;;;1.30;;
65092;SDS011;52025;50.288;2.794;2023-06-04T19:34:38;3.45;;;1.35;;
65092;SDS011;52025;50.288;2.794;2023-06-04T19:37:03;6.95;;;1.38;;
65092;SDS011;52025;50.288;2.794;2023-06-04T19:39:36;6.82;;;1.70;;
65092;SDS011;52025;50.288;2.794;2023-06-04T19:42:46;4.00;;;1.27;;
65092;SDS011;52025;50.288;2.794;2023-06-04T19:45:12;7.00;;;1.63;;
65092;SDS011;52025;50.288;2.794;2023-06-04T19:47:46;4.40;;;2.00;;
65092;SDS011;52025;50.288;2.794;2023-06-04T19:50:44;4.03;;;1.40;;
65092;SDS011;52025;50.288;2.794;2023-06-04T19:53:09;6.10;;;1.52;;
65092;SDS011;52025;50.288;2.794;2023-06-04T19:55:37;7.80;;;1.40;;
65092;SDS011;52025;50.288;2.794;2023-06-04T19:58:14;4.55;;;1.40;;
65092;SDS011;52025;50.288;2.794;2023-06-04T20:01:06;6.60;;;1.83;;
65092;SDS011;52025;50.288;2.794;2023-06-04T20:03:31;5.53;;;1.38;;
65092;SDS011;52025;50.288;2.794;2023-06-04T20:08:52;5.93;;;1.42;;
65092;SDS011;52025;50.288;2.794;2023-06-04T20:11:17;3.13;;;1.27;;
65092;SDS011;52025;50.288;2.794;2023-06-04T20:13:49;5.45;;;1.33;;
65092;SDS011;52025;50.288;2.794;2023-06-04T20:16:29;2.97;;;1.20;;
65092;SDS011;52025;50.288;2.794;2023-06-04T20:19:29;7.05;;;1.70;;
65092;SDS011;52025;50.288;2.794;2023-06-04T20:21:59;6.28;;;1.40;;
65092;SDS011;52025;50.288;2.794;2023-06-04T20:24:38;4.93;;;1.35;;
65092;SDS011;52025;50.288;2.794;2023-06-04T20:33:49;4.32;;;1.40;;
65092;SDS011;52025;50.288;2.794;2023-06-04T20:39:48;2.80;;;1.20;;
65092;SDS011;52025;50.288;2.794;2023-06-04T20:48:54;7.88;;;1.70;;
65092;SDS011;52025;50.288;2.794;2023-06-04T21:01:25;4.80;;;1.50;;
65092;SDS011;52025;50.288;2.794;2023-06-04T21:04:22;7.82;;;1.95;;
65092;SDS011;52025;50.288;2.794;2023-06-04T21:07:13;5.15;;;1.67;;
65092;SDS011;52025;50.288;2.794;2023-06-04T21:13:13;3.70;;;1.30;;
65092;SDS011;52025;50.288;2.794;2023-06-04T21:16:10;7.38;;;1.65;;
65092;SDS011;52025;50.288;2.794;2023-06-04T21:19:07;7.32;;;1.33;;
65092;SDS011;52025;50.288;2.794;2023-06-04T21:22:12;3.25;;;1.20;;
65092;SDS011;52025;50.288;2.794;2023-06-04T21:56:42;7.38;;;1.75;;
